Latest Coastal Weather Observations for Alva Beach

IDQ60701

Issued at 5:51 pm EST Saturday 28 May 2016 (issued every 10 minutes, with the page automatically refreshed every 10 minutes)

About coastal observations | Map of coastal stations | Coastal observations for QLD | Marine services | Other Formats
Station Details ID: 033295 Name: ALVA BEACH Lat: -19.46 Lon: 147.48 Height: 7.5 m
Data from the previous 72 hours. | See also: Recent months at Alva Beach
Date/Time
EST
Temp

°C
Wind Pressure Rain
since 9am
mm
Weather Cloud Vis
km
Sea
Height
m
Swell
Dir
 
Speed
knots
Gust
knots
hPa Trend Height
m
Period
s
Dir
28/05:30pm 25.8 ENE 12 15 1012.9 - 0.0 - - - - - - -
28/05:00pm 26.1 ENE 13 16 1012.8 - 0.0 - - - - - - -
28/04:30pm 26.5 ENE 14 16 1012.6 - 0.0 - - - - - - -
28/04:00pm 26.9 ENE 13 17 1012.3 - 0.0 - - - - - - -
28/03:30pm 27.0 ENE 13 17 1012.2 - 0.0 - - - - - - -
28/03:00pm 27.3 E 10 14 1012.4 - 0.0 - - - - - - -
28/02:30pm 26.9 E 10 14 1012.7 - 0.0 - - - - - - -
28/02:00pm 27.3 E 10 13 1012.9 - 0.0 - - - - - - -
28/01:30pm 27.4 E 9 13 1012.9 - 0.0 - - - - - - -
28/01:00pm 27.4 E 11 14 1013.4 - 0.0 - - - - - - -
28/12:30pm 29.1 E 9 13 1013.7 - 0.0 - - - - - - -
28/12:00pm 29.3 ESE 7 12 1014.1 - 0.0 - - - - - - -
28/11:30am 29.0 SSE 5 9 1014.5 - 0.0 - - - - - - -
28/11:00am 28.8 SSW 6 12 1014.7 - 0.0 - - - - - - -
28/10:30am 28.2 SSW 6 12 1015.1 - 0.0 - - - - - - -
28/10:00am 27.1 SSW 7 13 1015.4 - 0.0 - - - - - - -
28/09:30am 25.9 SSW 7 12 1015.7 - 0.0 - - - - - - -
28/09:00am 24.8 SSW 7 12 1015.7 - 0.0 - - - - - - -
28/08:30am 24.0 SW 5 9 1015.5 - 0.0 - - - - - - -
28/08:00am 22.8 SW 5 8 1015.3 - 0.0 - - - - - - -
28/07:30am 22.3 SW 3 5 1015.0 - 0.0 - - - - - - -
28/07:00am 21.8 SSW 6 9 1014.7 - 0.0 - - - - - - -
28/06:30am 21.7 SSW 6 9 1014.4 - 0.0 - - - - - - -
28/06:00am 22.3 SSW 6 9 1014.1 - 0.0 - - - - - - -
28/05:30am 22.8 SSW 2 4 1013.7 - 0.0 - - - - - - -
28/05:00am 23.0 SSW 2 4 1013.1 - 0.0 - - - - - - -
28/04:30am 23.3 S 3 4 1012.9 - 0.0 - - - - - - -
28/04:00am 23.6 CALM 0 0 1012.5 - 0.0 - - - - - - -
28/03:30am 24.1 SSW 2 4 1012.3 - 0.0 - - - - - - -
28/03:00am 24.8 W 1 3 1012.0 - 0.0 - - - - - - -
28/02:30am 25.1 NNW 2 5 1011.7 - 0.0 - - - - - - -
28/02:00am 25.3 NNW 3 5 1011.8 - 0.0 - - - - - - -
28/01:30am 25.4 NW 3 5 1012.2 - 0.0 - - - - - - -
28/01:00am 25.2 NW 2 5 1012.4 - 0.0 - - - - - - -
28/12:30am 25.2 NW 4 6 1012.3 - 0.0 - - - - - - -
28/12:00am 25.4 NW 4 10 1012.5 - 0.0 - - - - - - -
 
Date/Time
EST
Temp

°C
Wind Pressure Rain
since 9am
mm
Weather Cloud Vis
km
Sea
Height
m
Swell
Dir
 
Speed
knots
Gust
knots
hPa Trend Height
m
Period
s
Dir
27/11:30pm 25.3 NW 4 8 1012.5 - 0.0 - - - - - - -
27/11:00pm 25.3 NW 5 6 1012.4 - 0.0 - - - - - - -
27/10:30pm 25.5 NW 4 7 1012.5 - 0.0 - - - - - - -
27/10:00pm 25.5 NNW 3 5 1012.5 - 0.0 - - - - - - -
27/09:30pm 25.3 NW 4 6 1012.4 - 0.0 - - - - - - -
27/09:00pm 25.3 NW 3 6 1012.3 - 0.0 - - - - - - -
27/08:30pm 25.3 NNW 4 6 1012.1 - 0.0 - - - - - - -
27/08:00pm 25.3 NNW 4 8 1012.2 - 0.0 - - - - - - -
27/07:30pm 25.3 NNW 4 6 1012.0 - 0.0 - - - - - - -
27/07:00pm 25.3 NNW 5 7 1011.7 - 0.0 - - - - - - -
27/06:30pm 25.4 NNW 5 8 1011.3 - 0.0 - - - - - - -
27/06:00pm 25.6 NNW 6 8 1011.2 - 0.0 - - - - - - -
27/05:30pm 25.9 NNW 5 11 1011.1 - 0.0 - - - - - - -
27/05:00pm 26.2 N 6 11 1010.8 - 0.0 - - - - - - -
27/04:30pm 26.8 N 8 13 1010.5 - 0.0 - - - - - - -
27/04:00pm 26.9 N 8 13 1010.4 - 0.0 - - - - - - -
27/03:30pm 27.3 NNW 9 15 1010.4 - 0.0 - - - - - - -
27/03:00pm 28.0 NNW 9 15 1010.7 - 0.0 - - - - - - -
27/02:30pm 27.8 NNW 8 16 1010.9 - 0.0 - - - - - - -
27/02:00pm 27.9 NNW 8 14 1011.3 - 0.0 - - - - - - -
27/01:30pm 28.4 NNW 7 12 1011.6 - 0.0 - - - - - - -
27/01:00pm 28.3 NW 7 13 1012.1 - 0.0 - - - - - - -
27/12:30pm 28.2 NNW 8 14 1012.7 - 0.0 - - - - - - -
27/12:00pm 28.2 NW 7 13 1013.1 - 0.0 - - - - - - -
27/11:30am 28.2 NW 6 12 1013.6 - 0.0 - - - - - - -
27/11:00am 27.5 NW 7 12 1014.1 - 0.0 - - - - - - -
27/10:30am 27.0 WNW 7 10 1014.3 - 0.0 - - - - - - -
27/10:00am 27.1 NW 5 9 1014.6 - 0.0 - - - - - - -
27/09:30am 26.9 WNW 5 8 1014.6 - 0.0 - - - - - - -
27/09:00am 26.6 WNW 5 9 1014.5 - 0.0 - - - - - - -
27/08:30am 25.8 WNW 5 8 1014.5 - 0.0 - - - - - - -
27/08:00am 24.3 W 3 4 1014.3 - 0.0 - - - - - - -
27/07:30am 22.7 CALM 0 0 1014.0 - 0.0 - - - - - - -
27/07:00am 21.6 WSW 2 3 1013.7 - 0.0 - - - - - - -
27/06:30am 21.4 W 1 4 1013.7 - 0.0 - - - - - - -
27/06:00am 21.7 W 1 3 1013.2 - 0.0 - - - - - - -
27/05:30am 21.6 W 2 4 1012.9 - 0.0 - - - - - - -
27/05:00am 21.6 W 1 3 1013.0 - 0.0 - - - - - - -
27/04:30am 22.1 W 1 3 1013.0 - 0.0 - - - - - - -
27/04:00am 22.6 WNW 1 4 1013.0 - 0.0 - - - - - - -
27/03:30am 23.2 NW 1 3 1013.1 - 0.0 - - - - - - -
27/03:00am 23.4 NW 3 5 1013.0 - 0.0 - - - - - - -
27/02:30am 23.5 NW 3 5 1013.2 - 0.0 - - - - - - -
27/02:00am 23.9 NNW 5 7 1013.2 - 0.0 - - - - - - -
27/01:30am 24.1 NNW 4 6 1013.4 - 0.0 - - - - - - -
27/01:00am 24.4 NNW 5 7 1013.6 - 0.0 - - - - - - -
27/12:30am 24.8 N 5 8 1013.6 - 0.0 - - - - - - -
27/12:00am 24.6 N 5 9 1013.6 - 0.0 - - - - - - -
 
Date/Time
EST
Temp

°C
Wind Pressure Rain
since 9am
mm
Weather Cloud Vis
km
Sea
Height
m
Swell
Dir
 
Speed
knots
Gust
knots
hPa Trend Height
m
Period
s
Dir
26/11:30pm 24.6 N 5 7 1013.6 - 0.0 - - - - - - -
26/11:00pm 24.4 N 5 7 1013.5 - 0.0 - - - - - - -
26/10:30pm 24.6 N 5 8 1013.8 - 0.0 - - - - - - -
26/10:00pm 24.6 N 5 7 1014.1 - 0.0 - - - - - - -
26/09:30pm 24.7 N 8 9 1014.2 - 0.0 - - - - - - -
26/09:00pm 24.7 NNE 7 9 1014.2 - 0.0 - - - - - - -
26/08:30pm 24.8 NNE 7 9 1014.2 - 0.0 - - - - - - -
26/08:00pm 24.8 N 7 9 1014.2 - 0.0 - - - - - - -
26/07:30pm 24.8 NNE 7 9 1013.9 - 0.0 - - - - - - -
26/07:00pm 24.9 NNE 7 9 1013.6 - 0.0 - - - - - - -
26/06:30pm 25.0 NNE 8 10 1013.3 - 0.0 - - - - - - -
26/06:00pm 25.1 NE 9 10 1013.0 - 0.0 - - - - - - -
26/05:30pm 25.2 NNE 8 10 1012.9 - 0.0 - - - - - - -
26/05:00pm 25.4 NE 9 10 1012.8 - 0.0 - - - - - - -
26/04:30pm 25.6 NE 9 10 1012.7 - 0.0 - - - - - - -
26/04:00pm 26.0 NE 9 11 1012.7 - 0.0 - - - - - - -
26/03:30pm 26.2 ENE 10 11 1013.0 - 0.0 - - - - - - -
26/03:00pm 26.8 ENE 9 11 1013.2 - 0.0 - - - - - - -
26/02:30pm 26.6 ENE 9 11 1013.5 - 0.0 - - - - - - -
26/02:00pm 26.8 ENE 9 11 1013.9 - 0.0 - - - - - - -
26/01:30pm 26.4 E 7 10 1014.2 - 0.0 - - - - - - -
26/01:00pm 26.3 E 7 9 1014.6 - 0.0 - - - - - - -
26/12:30pm 26.1 E 7 9 1015.1 - 0.0 - - - - - - -
26/12:00pm 26.9 E 5 9 1015.5 - 0.0 - - - - - - -
26/11:30am 27.2 ESE 5 8 1016.0 - 0.0 - - - - - - -
26/11:00am 26.7 ESE 6 9 1016.4 - 0.0 - - - - - - -
26/10:30am 26.9 ESE 5 9 1016.5 - 0.0 - - - - - - -
26/10:00am 27.0 ESE 5 9 1016.5 - 0.0 - - - - - - -
26/09:30am 26.5 ESE 5 8 1016.6 - 0.0 - - - - - - -
26/09:00am 26.4 ESE 5 7 1016.5 - 0.0 - - - - - - -
26/08:30am 24.5 SE 4 7 1016.4 - 0.0 - - - - - - -
26/08:00am 22.7 SSE 3 5 1016.2 - 0.0 - - - - - - -
26/07:30am 20.6 S 3 5 1015.9 - 0.0 - - - - - - -
26/07:00am 19.5 SSW 5 7 1016.1 - 0.0 - - - - - - -
26/06:30am 19.2 SSW 4 6 1015.9 - 0.0 - - - - - - -
26/06:00am 19.6 SSW 4 5 1015.5 - 0.0 - - - - - - -
26/05:30am 19.8 SSW 5 7 1015.1 - 0.0 - - - - - - -
26/05:00am 19.9 SW 4 5 1015.0 - 0.0 - - - - - - -
26/04:30am 20.2 ESE 3 7 1014.9 - 0.0 - - - - - - -
26/04:00am 20.5 SE 3 6 1015.0 - 0.0 - - - - - - -
26/03:30am 20.5 SSW 4 5 1015.0 - 0.0 - - - - - - -
26/03:00am 21.8 S 2 4 1015.1 - 0.0 - - - - - - -
26/02:30am 24.6 E 6 8 1015.1 - 0.0 - - - - - - -
26/02:00am 24.7 E 7 9 1015.5 - 0.0 - - - - - - -
26/01:30am 24.7 E 8 11 1015.7 - 0.0 - - - - - - -
26/01:00am 24.7 E 9 11 1015.8 - 0.0 - - - - - - -
26/12:30am 24.8 E 9 12 1015.9 - 0.0 - - - - - - -
26/12:00am 24.9 E 10 12 1016.0 - 0.0 - - - - - - -
 
Date/Time
EST
Temp

°C
Wind Pressure Rain
since 9am
mm
Weather Cloud Vis
km
Sea
Height
m
Swell
Dir
 
Speed
knots
Gust
knots
hPa Trend Height
m
Period
s
Dir
25/11:30pm 24.8 ENE 10 13 1016.0 - 0.0 - - - - - - -
25/11:00pm 24.9 E 10 13 1016.3 - 0.0 - - - - - - -
25/10:30pm 24.9 E 11 14 1016.6 - 0.0 - - - - - - -
25/10:00pm 25.0 E 10 13 1016.9 - 0.0 - - - - - - -
25/09:30pm 24.8 E 9 13 1016.9 - 0.0 - - - - - - -
25/09:00pm 25.0 E 9 13 1016.8 - 0.0 - - - - - - -
25/08:30pm 24.9 E 9 13 1016.6 - 0.0 - - - - - - -
25/08:00pm 24.8 E 9 12 1016.3 - 0.0 - - - - - - -
25/07:30pm 24.8 E 10 13 1015.8 - 0.0 - - - - - - -
25/07:00pm 24.9 E 8 11 1015.5 - 0.0 - - - - - - -
25/06:30pm 24.8 E 9 12 1015.0 - 0.0 - - - - - - -
25/06:00pm 25.0 E 9 12 1014.7 - 0.0 - - - - - - -

Other Formats:

Comma delimited format used in spreadsheet applications
http://www.bom.gov.au/fwo/IDQ60701/IDQ60701.95296.axf

JavaScript Object Notation format (JSON) in row-major order
http://www.bom.gov.au/fwo/IDQ60701/IDQ60701.95296.json